createdAt,value
2019-04-06T00:00:46.071Z,49.97
2019-04-06T00:03:15.915Z,51.17
2019-04-06T00:05:46.038Z,53.37
2019-04-06T00:08:16.031Z,52.07
2019-04-06T00:10:45.582Z,50.77
2019-04-06T00:13:15.990Z,54.67
2019-04-06T00:15:45.537Z,54.73
2019-04-06T00:18:15.144Z,55.57
2019-04-06T00:20:45.127Z,47.87
2019-04-06T00:23:14.649Z,53.23
2019-04-06T00:25:45.042Z,48.07
2019-04-06T00:28:15.462Z,55.47
2019-04-06T00:30:49.331Z,47.37
2019-04-06T00:33:20.513Z,47.77
2019-04-06T00:35:50.139Z,57.27
2019-04-06T00:38:19.823Z,47.60
2019-04-06T00:40:49.525Z,52.33
2019-04-06T00:43:19.230Z,46.60
2019-04-06T00:45:49.050Z,54.58
2019-04-06T00:48:18.877Z,52.23
2019-04-06T00:50:48.429Z,47.03
2019-04-06T00:53:17.965Z,54.73
2019-04-06T00:55:55.675Z,50.47
2019-04-06T00:58:19.797Z,47.33
2019-04-06T01:00:49.676Z,50.63
2019-04-06T01:03:19.224Z,48.83
2019-04-06T01:05:48.872Z,49.27
2019-04-06T01:08:18.422Z,50.37
2019-04-06T01:10:48.098Z,49.20
2019-04-06T01:13:17.950Z,53.30
2019-04-06T01:15:47.498Z,51.80
2019-04-06T01:18:17.076Z,50.27
2019-04-06T01:20:46.936Z,50.07
2019-04-06T01:23:16.560Z,53.43
2019-04-06T01:25:46.128Z,46.47
2019-04-06T01:28:15.741Z,46.13
2019-04-06T01:30:45.484Z,47.23
2019-04-06T01:33:15.372Z,50.07
2019-04-06T01:35:44.908Z,44.93
2019-04-06T01:38:14.737Z,41.93
2019-04-06T01:40:44.288Z,50.57
2019-04-06T01:43:14.021Z,45.67
2019-04-06T01:45:43.636Z,49.60
2019-04-06T01:48:13.314Z,47.87
2019-04-06T01:50:42.873Z,48.30
2019-04-06T01:53:12.421Z,53.07
2019-04-06T01:55:42.657Z,48.17
2019-04-06T01:58:12.206Z,48.90
2019-04-06T02:00:43.389Z,55.50
2019-04-06T02:03:13.131Z,55.57
2019-04-06T02:05:42.931Z,51.73
2019-04-06T02:08:12.616Z,50.87
2019-04-06T02:10:42.322Z,51.13
2019-04-06T02:13:12.030Z,47.20
2019-04-06T02:15:41.575Z,48.03
2019-04-06T02:18:11.261Z,46.90
2019-04-06T02:20:40.808Z,43.83
2019-04-06T02:23:10.359Z,53.07
2019-04-06T02:25:40.163Z,47.57
2019-04-06T02:28:09.708Z,48.33
2019-04-06T02:30:49.617Z,49.53
2019-04-06T02:33:30.081Z,49.67
2019-04-06T02:36:17.094Z,51.67
2019-04-06T02:38:46.551Z,47.77
2019-04-06T02:41:20.297Z,43.67
2019-04-06T02:43:50.516Z,44.57
2019-04-06T02:46:20.830Z,47.93
2019-04-06T02:48:50.389Z,46.00
2019-04-06T02:51:20.609Z,49.87
2019-04-06T02:53:50.162Z,46.27
2019-04-06T02:56:19.718Z,45.63
2019-04-06T02:58:49.588Z,47.33
2019-04-06T03:01:19.130Z,44.97
2019-04-06T03:03:49.206Z,44.07
2019-04-06T03:06:18.907Z,44.90
2019-04-06T03:08:48.470Z,48.03
2019-04-06T03:11:18.134Z,48.33
2019-04-06T03:13:47.747Z,43.63
2019-04-06T03:16:17.305Z,47.83
2019-04-06T03:18:47.111Z,45.10
2019-04-06T03:21:17.234Z,45.67
2019-04-06T03:23:51.388Z,44.67
2019-04-06T03:26:18.516Z,48.77
2019-04-06T03:28:48.545Z,46.90
2019-04-06T03:31:22.878Z,50.50
2019-04-06T03:33:49.498Z,50.20
2019-04-06T03:36:19.866Z,49.30
2019-04-06T03:38:49.847Z,54.70
2019-04-06T03:41:19.392Z,53.17
2019-04-06T03:43:49.246Z,55.23
2019-04-06T03:46:18.798Z,52.47
2019-04-06T03:48:48.353Z,54.13
2019-04-06T03:51:18.180Z,47.63
2019-04-06T03:53:47.725Z,51.57
2019-04-06T03:56:17.382Z,56.60
2019-04-06T03:58:47.031Z,54.87
2019-04-06T04:01:16.616Z,56.43
2019-04-06T04:03:46.888Z,60.40
2019-04-06T04:06:16.455Z,55.33
2019-04-06T04:08:46.007Z,53.40
2019-04-06T04:11:16.073Z,61.30
2019-04-06T04:13:45.568Z,53.10
2019-04-06T04:16:15.274Z,54.67
2019-04-06T04:18:44.804Z,59.23
2019-04-06T04:21:14.514Z,52.27
2019-04-06T04:23:44.064Z,49.03
2019-04-06T04:26:13.614Z,51.30
2019-04-06T04:28:44.001Z,51.07
2019-04-06T04:31:13.710Z,54.10
2019-04-06T04:33:43.255Z,54.90
2019-04-06T04:36:12.929Z,53.03
2019-04-06T04:38:42.620Z,49.67
2019-04-06T04:41:12.172Z,53.03
2019-04-06T04:43:42.138Z,56.70
2019-04-06T04:46:11.891Z,53.10
2019-04-06T04:48:41.672Z,59.63
2019-04-06T04:51:11.216Z,56.50
2019-04-06T04:53:41.562Z,51.77
2019-04-06T04:56:11.420Z,51.10
2019-04-06T04:58:40.995Z,80.33
2019-04-06T05:01:10.586Z,54.43
2019-04-06T05:03:40.234Z,56.70
2019-04-06T05:06:10.245Z,54.17
2019-04-06T05:08:39.822Z,55.70
2019-04-06T05:11:09.628Z,59.73
2019-04-06T05:13:39.134Z,53.07
2019-04-06T05:16:15.647Z,56.10
2019-04-06T05:18:45.313Z,55.63
2019-04-06T05:21:15.416Z,56.90
2019-04-06T05:23:44.966Z,48.93
2019-04-06T05:26:14.517Z,55.97
2019-04-06T05:28:44.785Z,62.57
2019-04-06T05:31:14.483Z,57.80
2019-04-06T05:33:44.028Z,59.57
2019-04-06T05:36:13.575Z,64.70
2019-04-06T05:38:43.640Z,59.87
2019-04-06T05:41:13.197Z,57.90
2019-04-06T05:43:42.914Z,56.73
2019-04-06T05:46:12.530Z,57.27
2019-04-06T05:48:42.243Z,90.77
2019-04-06T05:51:11.837Z,74.73
2019-04-06T05:53:42.040Z,70.17
2019-04-06T05:56:11.615Z,64.37
2019-04-06T05:58:44.234Z,62.70
2019-04-06T06:01:13.208Z,62.50
2019-04-06T06:03:42.752Z,62.10
2019-04-06T06:06:13.025Z,60.90
2019-04-06T06:08:43.290Z,60.67
2019-04-06T06:11:12.951Z,56.07
2019-04-06T06:13:42.820Z,67.23
2019-04-06T06:16:12.417Z,63.13
2019-04-06T06:18:41.909Z,61.97
2019-04-06T06:21:11.745Z,54.37
2019-04-06T06:23:41.642Z,55.97
2019-04-06T06:26:11.356Z,57.00
2019-04-06T06:28:40.905Z,52.00
2019-04-06T06:31:10.846Z,52.63
2019-04-06T06:33:41.009Z,56.33
2019-04-06T06:36:10.721Z,61.07
2019-04-06T06:38:40.504Z,61.97
2019-04-06T06:41:10.872Z,55.07
2019-04-06T06:43:40.373Z,47.57
2019-04-06T06:46:10.039Z,56.00
2019-04-06T06:48:39.578Z,55.30
2019-04-06T06:51:09.213Z,53.83
2019-04-06T06:53:39.777Z,54.77
2019-04-06T06:56:09.409Z,55.87
2019-04-06T06:58:38.971Z,52.13
2019-04-06T07:01:08.952Z,47.03
2019-04-06T07:03:38.576Z,48.23
2019-04-06T07:06:08.529Z,48.60
2019-04-06T07:08:39.601Z,48.17
2019-04-06T07:11:09.539Z,49.33
2019-04-06T07:13:39.283Z,126.27
2019-04-06T07:16:09.006Z,52.17
2019-04-06T07:18:38.547Z,50.00
2019-04-06T07:21:08.383Z,50.17
2019-04-06T07:23:37.926Z,46.80
2019-04-06T07:26:07.481Z,44.53
2019-04-06T07:28:38.997Z,49.27
2019-04-06T07:31:09.093Z,52.33
2019-04-06T07:33:38.655Z,49.33
2019-04-06T07:36:08.201Z,50.23
2019-04-06T07:38:38.709Z,50.67
2019-04-06T07:41:08.392Z,46.70
2019-04-06T07:43:38.287Z,40.87
2019-04-06T07:46:08.290Z,88.03
2019-04-06T07:48:37.881Z,67.53
2019-04-06T07:51:07.427Z,50.88
2019-04-06T07:53:37.326Z,44.50
2019-04-06T07:56:07.098Z,49.47
2019-04-06T07:58:48.045Z,44.10
2019-04-06T08:01:08.587Z,39.90
2019-04-06T08:03:38.386Z,41.33
2019-04-06T08:06:07.926Z,41.77
2019-04-06T08:08:38.212Z,44.53
2019-04-06T08:11:07.748Z,74.73
2019-04-06T08:13:37.609Z,49.00
2019-04-06T08:16:07.328Z,111.87
2019-04-06T08:18:36.877Z,92.80
2019-04-06T08:21:06.433Z,62.83
2019-04-06T08:23:36.241Z,56.00
2019-04-06T08:26:05.791Z,132.60
2019-04-06T08:28:35.337Z,56.17
2019-04-06T08:31:05.792Z,42.93
2019-04-06T08:33:35.408Z,39.30
2019-04-06T08:36:05.013Z,39.80
2019-04-06T08:38:34.746Z,37.23
2019-04-06T08:41:04.351Z,39.60
2019-04-06T08:43:33.916Z,92.63
2019-04-06T08:46:03.872Z,52.57
2019-04-06T08:48:33.762Z,40.67
2019-04-06T08:51:03.661Z,38.07
2019-04-06T08:53:33.255Z,39.13
2019-04-06T08:56:02.954Z,38.63
2019-04-06T08:58:32.509Z,39.30
2019-04-06T09:01:02.287Z,34.07
2019-04-06T09:03:31.885Z,41.90
2019-04-06T09:06:01.707Z,44.07
2019-04-06T09:08:31.765Z,45.07
2019-04-06T09:11:01.616Z,44.93
2019-04-06T09:13:32.364Z,40.80
2019-04-06T09:16:03.866Z,36.63
2019-04-06T09:18:33.378Z,36.90
2019-04-06T09:21:03.228Z,35.37
2019-04-06T09:23:33.131Z,39.07
2019-04-06T09:26:02.848Z,38.40
2019-04-06T09:28:32.539Z,36.60
2019-04-06T09:31:02.459Z,35.60
2019-04-06T09:33:32.173Z,44.17
2019-04-06T09:36:02.479Z,71.62
2019-04-06T09:38:32.356Z,52.53
2019-04-06T09:41:02.172Z,38.57
2019-04-06T09:43:31.745Z,40.20
2019-04-06T09:46:12.182Z,40.97
2019-04-06T09:48:43.951Z,38.73
2019-04-06T09:51:31.668Z,41.67
2019-04-06T09:54:14.931Z,40.40
2019-04-06T09:56:47.042Z,37.50
2019-04-06T09:59:34.253Z,38.20
2019-04-06T10:05:03.129Z,40.27
2019-04-06T10:07:36.740Z,38.37
2019-04-06T10:10:14.498Z,41.33
2019-04-06T10:12:45.702Z,37.30
2019-04-06T10:15:21.993Z,35.00
2019-04-06T10:17:58.877Z,39.20
2019-04-06T10:20:30.179Z,36.40
2019-04-06T10:23:04.622Z,41.53
2019-04-06T10:25:39.793Z,35.87
2019-04-06T10:28:17.314Z,33.77
2019-04-06T10:30:53.600Z,32.97
2019-04-06T10:33:39.444Z,33.83
2019-04-06T10:36:31.068Z,29.67
2019-04-06T10:39:17.946Z,33.90
2019-04-06T10:42:04.158Z,29.27
2019-04-06T10:44:52.075Z,34.70
2019-04-06T10:47:35.584Z,32.80
2019-04-06T10:50:14.120Z,30.73
2019-04-06T10:52:43.516Z,32.57
2019-04-06T10:55:18.920Z,31.43
2019-04-06T10:58:08.344Z,32.10
2019-04-06T11:00:51.573Z,32.63
2019-04-06T11:03:26.447Z,28.97
2019-04-06T11:05:57.769Z,31.00
2019-04-06T11:08:46.979Z,28.80
2019-04-06T11:11:20.825Z,29.53
2019-04-06T11:14:08.311Z,26.60
2019-04-06T11:16:40.859Z,28.83
2019-04-06T11:19:28.961Z,29.13
2019-04-06T11:22:17.195Z,28.43
2019-04-06T11:24:50.067Z,28.20
2019-04-06T11:27:21.580Z,26.02
2019-04-06T11:29:51.438Z,28.05
2019-04-06T11:32:25.973Z,25.50
2019-04-06T11:35:02.713Z,29.60
2019-04-06T11:37:45.869Z,28.07
2019-04-06T11:40:19.811Z,35.35
2019-04-06T11:43:09.286Z,30.13
2019-04-06T11:45:40.482Z,30.27
2019-04-06T11:48:23.797Z,26.93
2019-04-06T11:50:53.145Z,28.90
2019-04-06T11:53:40.830Z,26.27
2019-04-06T11:56:14.893Z,28.13
2019-04-06T11:58:46.350Z,27.13
2019-04-06T12:01:24.562Z,26.20
2019-04-06T12:04:11.417Z,25.10
2019-04-06T12:06:43.447Z,25.37
2019-04-06T12:09:27.839Z,24.53
2019-04-06T12:12:10.744Z,24.93
2019-04-06T12:14:45.078Z,26.97
2019-04-06T12:17:14.554Z,22.90
2019-04-06T12:19:44.263Z,25.60
2019-04-06T12:22:31.854Z,23.63
2019-04-06T12:25:19.164Z,28.57
2019-04-06T12:27:59.494Z,26.83
2019-04-06T12:30:49.212Z,25.43
2019-04-06T12:33:23.105Z,24.30
2019-04-06T12:35:52.596Z,28.23
2019-04-06T12:38:32.698Z,28.90
2019-04-06T12:41:03.960Z,28.60
2019-04-06T12:43:51.158Z,26.40
2019-04-06T12:46:24.759Z,24.87
2019-04-06T12:48:55.666Z,24.63
2019-04-06T12:51:29.908Z,22.20
2019-04-06T12:54:05.556Z,24.80
2019-04-06T12:56:37.814Z,23.43
2019-04-06T12:59:21.857Z,25.87
2019-04-06T13:01:53.165Z,24.67
2019-04-06T13:04:30.389Z,27.53
2019-04-06T13:07:16.456Z,23.83
2019-04-06T13:09:47.916Z,26.03
2019-04-06T13:12:28.527Z,25.37
2019-04-06T13:15:16.549Z,27.43
2019-04-06T13:18:04.066Z,26.27
2019-04-06T13:20:50.762Z,28.30
2019-04-06T13:23:39.783Z,24.17
2019-04-06T13:26:27.592Z,24.43
2019-04-06T13:29:08.051Z,23.30
2019-04-06T13:31:57.515Z,26.47
2019-04-06T13:34:36.039Z,23.40
2019-04-06T13:37:22.091Z,24.50
2019-04-06T13:39:56.645Z,22.53
2019-04-06T13:42:26.759Z,19.40
2019-04-06T13:44:58.004Z,19.00
2019-04-06T13:47:29.458Z,19.07
2019-04-06T13:50:10.409Z,17.42
2019-04-06T13:52:54.083Z,16.87
2019-04-06T13:55:40.950Z,17.70
2019-04-06T13:58:15.002Z,17.33
2019-04-06T14:00:49.217Z,18.03
2019-04-06T14:03:23.456Z,18.37
2019-04-06T14:05:52.904Z,17.57
2019-04-06T14:08:25.685Z,18.47
2019-04-06T14:10:59.899Z,18.07
2019-04-06T14:13:33.975Z,18.00
2019-04-06T14:16:22.041Z,16.47
2019-04-06T14:18:53.299Z,19.50
2019-04-06T14:21:25.145Z,17.17
2019-04-06T14:24:02.241Z,18.50
2019-04-06T14:26:48.764Z,19.83
2019-04-06T14:29:26.012Z,18.80
2019-04-06T14:31:59.980Z,18.90
2019-04-06T14:34:31.427Z,17.53
2019-04-06T14:37:00.927Z,19.47
2019-04-06T14:39:33.266Z,17.07
2019-04-06T14:42:16.200Z,17.63
2019-04-06T14:44:46.136Z,19.10
2019-04-06T14:47:24.437Z,17.03
2019-04-06T14:49:55.696Z,19.60
2019-04-06T14:52:27.828Z,16.67
2019-04-06T14:55:08.445Z,16.53
2019-04-06T14:57:39.787Z,18.67
2019-04-06T15:00:20.882Z,16.27
2019-04-06T15:03:04.723Z,18.87
2019-04-06T15:05:43.044Z,18.73
2019-04-06T15:08:21.419Z,17.93
2019-04-06T15:11:06.170Z,18.10
2019-04-06T15:13:46.419Z,16.10
2019-04-06T15:16:18.054Z,16.10
2019-04-06T15:18:52.542Z,17.90
2019-04-06T15:21:31.027Z,16.60
2019-04-06T15:24:11.642Z,19.90
2019-04-06T15:26:58.324Z,29.60
2019-04-06T15:29:32.239Z,36.90
2019-04-06T15:32:20.259Z,37.37
2019-04-06T15:34:51.665Z,34.53
2019-04-06T15:37:38.482Z,35.13
2019-04-06T15:40:17.459Z,34.30
2019-04-06T15:42:54.994Z,35.90
2019-04-06T15:45:42.433Z,34.57
2019-04-06T15:48:38.023Z,36.57
2019-04-06T15:51:21.472Z,35.90
2019-04-06T15:54:04.905Z,37.40
2019-04-06T15:56:38.944Z,36.47
2019-04-06T15:59:15.979Z,37.43
2019-04-06T16:01:58.479Z,50.30
2019-04-06T16:04:26.684Z,39.00
2019-04-06T16:07:03.484Z,33.97
2019-04-06T16:09:51.219Z,37.13
2019-04-06T16:12:22.799Z,36.67
2019-04-06T16:15:09.369Z,36.30
2019-04-06T16:17:57.214Z,37.37
2019-04-06T16:20:35.165Z,34.57
2019-04-06T16:23:18.735Z,32.27
2019-04-06T16:25:55.670Z,37.77
2019-04-06T16:28:43.551Z,38.07
2019-04-06T16:31:14.938Z,36.00
2019-04-06T16:33:46.198Z,38.13
2019-04-06T16:36:20.081Z,33.93
2019-04-06T16:38:57.739Z,39.47
2019-04-06T16:41:28.932Z,36.27
2019-04-06T16:44:15.595Z,36.60
2019-04-06T16:46:55.980Z,35.47
2019-04-06T16:49:27.432Z,34.17
2019-04-06T16:52:14.952Z,32.00
2019-04-06T16:54:51.974Z,34.77
2019-04-06T16:57:39.692Z,35.37
2019-04-06T17:00:19.606Z,35.07
2019-04-06T17:02:53.998Z,30.63
2019-04-06T17:05:30.619Z,36.40
2019-04-06T17:08:09.631Z,34.00
2019-04-06T17:10:36.096Z,32.60
2019-04-06T17:13:20.092Z,31.47
2019-04-06T17:15:51.275Z,31.90
2019-04-06T17:18:38.761Z,34.50
2019-04-06T17:21:08.330Z,34.23
2019-04-06T17:23:45.564Z,33.87
2019-04-06T17:26:16.895Z,32.83
2019-04-06T17:28:48.083Z,35.23
2019-04-06T17:31:37.465Z,35.17
2019-04-06T17:34:15.903Z,34.25
2019-04-06T17:36:47.096Z,38.10
2019-04-06T17:39:34.592Z,37.83
2019-04-06T17:42:20.412Z,35.80
2019-04-06T17:45:06.432Z,38.73
2019-04-06T17:47:37.626Z,37.27
2019-04-06T17:50:25.838Z,38.43
2019-04-06T17:53:07.202Z,35.00
2019-04-06T17:55:41.635Z,39.03
2019-04-06T17:58:15.530Z,37.50
2019-04-06T18:00:51.497Z,37.13
2019-04-06T18:03:25.544Z,48.70
2019-04-06T18:05:56.998Z,46.17
2019-04-06T18:08:44.367Z,44.40
2019-04-06T18:11:18.354Z,43.23
2019-04-06T18:13:51.055Z,38.60
2019-04-06T18:16:23.136Z,38.50
2019-04-06T18:18:52.900Z,38.77
2019-04-06T18:21:22.549Z,43.77
2019-04-06T18:23:52.103Z,47.73
2019-04-06T18:26:22.045Z,42.43
2019-04-06T18:28:51.652Z,44.53
2019-04-06T18:31:21.054Z,45.98
2019-04-06T18:33:50.703Z,50.47
2019-04-06T18:36:21.920Z,49.57
2019-04-06T18:38:56.112Z,41.40
2019-04-06T18:41:25.819Z,43.83
2019-04-06T18:43:56.056Z,45.37
2019-04-06T18:46:25.853Z,43.23
2019-04-06T18:48:55.685Z,44.87
2019-04-06T18:51:25.257Z,44.93
2019-04-06T18:53:55.002Z,49.93
2019-04-06T18:56:24.591Z,53.97
2019-04-06T18:58:54.742Z,80.90
2019-04-06T19:01:24.844Z,58.97
2019-04-06T19:03:54.403Z,65.17
2019-04-06T19:06:23.954Z,102.50
2019-04-06T19:08:53.766Z,100.30
2019-04-06T19:11:23.317Z,76.47
2019-04-06T19:13:53.335Z,59.77
2019-04-06T19:16:22.922Z,58.30
2019-04-06T19:18:52.516Z,53.63
2019-04-06T19:21:22.317Z,53.30
2019-04-06T19:23:51.939Z,52.17
2019-04-06T19:26:21.534Z,44.57
2019-04-06T19:28:51.489Z,47.53
2019-04-06T19:31:21.013Z,44.27
2019-04-06T19:33:51.154Z,45.10
2019-04-06T19:36:21.421Z,48.93
2019-04-06T19:38:50.938Z,48.53
2019-04-06T19:41:20.654Z,44.40
2019-04-06T19:43:50.213Z,55.67
2019-04-06T19:46:20.221Z,49.80
2019-04-06T19:48:49.783Z,64.20
2019-04-06T19:51:19.355Z,54.67
2019-04-06T19:53:49.339Z,61.80
2019-04-06T19:56:19.046Z,57.37
2019-04-06T19:58:48.597Z,58.67
2019-04-06T20:01:18.463Z,45.53
2019-04-06T20:03:48.070Z,46.20
2019-04-06T20:06:18.257Z,48.83
2019-04-06T20:08:48.689Z,48.13
2019-04-06T20:11:19.193Z,52.27
2019-04-06T20:13:49.378Z,43.90
2019-04-06T20:16:20.088Z,46.83
2019-04-06T20:18:49.886Z,49.30
2019-04-06T20:21:19.446Z,46.98
2019-04-06T20:23:49.584Z,45.87
2019-04-06T20:26:19.643Z,47.50
2019-04-06T20:28:49.736Z,46.87
2019-04-06T20:31:19.635Z,49.07
2019-04-06T20:33:52.328Z,50.57
2019-04-06T20:36:20.981Z,45.77
2019-04-06T20:38:50.623Z,47.60
2019-04-06T20:41:21.618Z,47.73
2019-04-06T20:43:51.210Z,49.40
2019-04-06T20:46:21.217Z,49.50
2019-04-06T20:48:51.185Z,46.47
2019-04-06T20:51:21.452Z,47.93
2019-04-06T20:53:51.386Z,41.57
2019-04-06T20:56:21.001Z,44.73
2019-04-06T20:58:51.212Z,45.17
2019-04-06T21:01:21.110Z,44.20
2019-04-06T21:03:59.625Z,44.73
2019-04-06T21:06:23.487Z,46.10
2019-04-06T21:08:53.768Z,45.10
2019-04-06T21:11:23.424Z,47.20
2019-04-06T21:13:53.906Z,45.43
2019-04-06T21:16:23.595Z,48.37
2019-04-06T21:18:53.559Z,48.37
2019-04-06T21:21:23.145Z,44.10
2019-04-06T21:23:52.961Z,49.00
2019-04-06T21:26:22.833Z,45.43
2019-04-06T21:28:53.050Z,43.63
2019-04-06T21:31:23.214Z,46.20
2019-04-06T21:33:53.025Z,49.20
2019-04-06T21:36:23.545Z,42.57
2019-04-06T21:38:53.867Z,46.07
2019-04-06T21:41:24.586Z,45.10
2019-04-06T21:43:54.929Z,47.60
2019-04-06T21:46:24.677Z,47.87
2019-04-06T21:48:54.331Z,51.23
2019-04-06T21:51:24.140Z,46.53
2019-04-06T21:53:53.667Z,43.67
2019-04-06T21:56:23.503Z,45.60
2019-04-06T21:58:53.159Z,44.97
2019-04-06T22:01:24.364Z,45.17
2019-04-06T22:03:54.253Z,46.10
2019-04-06T22:06:25.006Z,47.67
2019-04-06T22:08:55.211Z,51.63
2019-04-06T22:11:25.210Z,51.50
2019-04-06T22:13:54.796Z,50.30
2019-04-06T22:16:24.563Z,46.07
2019-04-06T22:18:54.241Z,48.43
2019-04-06T22:21:24.072Z,49.90
2019-04-06T22:23:53.708Z,50.93
2019-04-06T22:26:23.733Z,54.23
2019-04-06T22:28:53.991Z,49.70
2019-04-06T22:31:23.766Z,61.83
2019-04-06T22:33:53.476Z,51.37
2019-04-06T22:36:23.613Z,55.43
2019-04-06T22:38:53.763Z,52.73
2019-04-06T22:41:23.473Z,51.63
2019-04-06T22:43:52.984Z,50.60
2019-04-06T22:46:22.780Z,54.70
2019-04-06T22:48:52.932Z,43.87
2019-04-06T22:51:22.937Z,47.67
2019-04-06T22:53:52.671Z,48.77
2019-04-06T22:56:23.312Z,51.47
2019-04-06T22:58:54.500Z,46.37
2019-04-06T23:01:25.866Z,51.20
2019-04-06T23:04:08.948Z,53.30
2019-04-06T23:06:40.417Z,49.97
2019-04-06T23:09:11.006Z,48.50
2019-04-06T23:11:40.948Z,45.97
2019-04-06T23:14:11.233Z,47.97
2019-04-06T23:16:41.170Z,51.23
2019-04-06T23:19:10.986Z,53.33
2019-04-06T23:21:41.346Z,50.77
2019-04-06T23:24:11.106Z,49.73
2019-04-06T23:26:41.101Z,47.80
2019-04-06T23:29:11.198Z,48.37
2019-04-06T23:31:41.563Z,47.27
2019-04-06T23:34:11.772Z,48.93
2019-04-06T23:36:42.035Z,45.30
2019-04-06T23:39:11.658Z,45.87
2019-04-06T23:41:41.211Z,46.07
2019-04-06T23:44:11.033Z,46.97
2019-04-06T23:46:41.731Z,44.20
2019-04-06T23:49:12.052Z,49.27
2019-04-06T23:51:41.803Z,46.93
2019-04-06T23:54:11.506Z,44.83
2019-04-06T23:56:41.677Z,46.13
2019-04-06T23:59:12.077Z,40.87
